Time;durP1;ratioP1;P1;durP2;ratioP2;P2;SDS_P1;SDS_P2;PMS_P1;PMS_P2;Temp;Humidity;BMP_temperature;BMP_pressure;BME280_temperature;BME280_humidity;BME280_pressure;Samples;Min_cycle;Max_cycle;Signal;HPM_P1;HPM_P2
2021/07/08 00:01:53;;;;;;;3.20;0.47;;;23.20;38.80;;;;;;4343087;32;20099;-37
2021/07/08 00:04:20;;;;;;;2.28;1.05;;;23.10;38.90;;;;;;4341341;33;20539;-35
2021/07/08 00:06:46;;;;;;;2.08;0.80;;;23.10;39.10;;;;;;4342907;33;20094;-37
2021/07/08 00:09:13;;;;;;;3.10;0.55;;;23.00;39.20;;;;;;4330098;33;20498;-36
2021/07/08 00:11:40;;;;;;;1.52;0.82;;;23.00;39.30;;;;;;4342663;33;20228;-36
2021/07/08 00:14:06;;;;;;;2.85;0.55;;;22.90;39.40;;;;;;4357129;32;20051;-37
2021/07/08 00:16:34;;;;;;;1.30;0.57;;;22.90;40.20;;;;;;4357316;32;20066;-37
2021/07/08 00:19:01;;;;;;;6.57;1.20;;;22.90;39.50;;;;;;4357730;32;20080;-37
2021/07/08 00:21:27;;;;;;;1.73;0.37;;;22.80;39.50;;;;;;4357429;32;20074;-36
2021/07/08 00:23:54;;;;;;;2.55;0.50;;;22.80;39.60;;;;;;4357256;32;20065;-36
2021/07/08 00:26:20;;;;;;;0.85;0.32;;;22.80;39.60;;;;;;4345002;32;20055;-36
2021/07/08 00:28:46;;;;;;;1.12;0.68;;;22.80;39.50;;;;;;4356997;32;20143;-36
2021/07/08 00:31:13;;;;;;;0.55;0.30;;;22.70;39.60;;;;;;4357463;32;20077;-36
2021/07/08 00:33:40;;;;;;;1.35;0.68;;;22.80;39.60;;;;;;4344464;32;20066;-35
2021/07/08 00:36:06;;;;;;;1.67;0.52;;;22.80;39.60;;;;;;4356975;32;20079;-36
2021/07/08 00:38:33;;;;;;;0.90;0.50;;;22.70;39.70;;;;;;4344740;32;20066;-37
2021/07/08 00:40:59;;;;;;;1.65;0.60;;;22.70;39.90;;;;;;4362096;32;20144;-36
2021/07/08 00:43:30;;;;;;;0.93;0.70;;;22.70;40.10;;;;;;4349578;32;20155;-36
2021/07/08 00:45:58;;;;;;;3.55;0.52;;;22.70;40.40;;;;;;4349165;32;20138;-36
2021/07/08 00:48:25;;;;;;;1.67;0.70;;;22.60;40.50;;;;;;4360748;32;20157;-36
2021/07/08 00:50:52;;;;;;;1.92;1.02;;;22.60;40.70;;;;;;4374381;32;20128;-36
2021/07/08 00:53:20;;;;;;;1.58;0.65;;;22.60;40.90;;;;;;4372779;32;20073;-36
2021/07/08 00:55:58;;;;;;;0.85;0.65;;;22.60;40.90;;;;;;4372488;32;20623;-36
2021/07/08 00:58:24;;;;;;;1.00;0.70;;;22.60;40.90;;;;;;4355186;32;20054;-36
2021/07/08 01:00:51;;;;;;;1.52;0.62;;;22.60;41.10;;;;;;4372924;32;20063;-37
2021/07/08 01:03:17;;;;;;;0.40;0.37;;;22.60;41.20;;;;;;4373114;32;20086;-34
2021/07/08 01:05:49;;;;;;;0.35;0.15;;;22.60;41.20;;;;;;4374702;32;20061;-41
2021/07/08 01:08:15;;;;;;;2.62;0.80;;;22.60;41.30;;;;;;4374348;32;20081;-36
2021/07/08 01:10:43;;;;;;;2.30;0.65;;;22.60;41.20;;;;;;4349015;32;20152;-36
2021/07/08 01:13:10;;;;;;;5.10;1.05;;;22.70;41.30;;;;;;4379250;32;20101;-37
2021/07/08 01:15:36;;;;;;;0.43;0.30;;;22.70;41.30;;;;;;4388186;32;20085;-36
2021/07/08 01:18:03;;;;;;;6.70;0.88;;;22.70;41.30;;;;;;4375402;32;20085;-36
2021/07/08 01:20:31;;;;;;;0.88;0.62;;;22.70;41.30;;;;;;4362288;32;20177;-36
2021/07/08 01:22:57;;;;;;;1.73;0.68;;;22.80;41.30;;;;;;4375083;32;20070;-36
2021/07/08 01:25:26;;;;;;;1.05;0.60;;;22.80;41.20;;;;;;4375241;32;20061;-36
2021/07/08 01:27:53;;;;;;;1.75;0.75;;;22.90;41.30;;;;;;4362838;32;20088;-36
2021/07/08 01:30:20;;;;;;;6.53;0.50;;;22.90;41.20;;;;;;4389196;32;20069;-36
2021/07/08 01:32:47;;;;;;;0.55;0.37;;;23.00;41.20;;;;;;4374565;32;20069;-36
2021/07/08 01:35:14;;;;;;;0.47;0.40;;;23.10;41.20;;;;;;4374917;32;20561;-35
2021/07/08 01:37:40;;;;;;;4.03;1.52;;;23.10;41.20;;;;;;4375015;32;20097;-35
2021/07/08 01:40:09;;;;;;;6.10;1.40;;;23.10;41.20;;;;;;4388718;32;20518;-36
2021/07/08 01:42:36;;;;;;;0.70;0.40;;;23.10;41.20;;;;;;4374610;32;20066;-36
2021/07/08 01:45:04;;;;;;;2.30;1.02;;;23.20;41.30;;;;;;4374654;32;20081;-36
2021/07/08 01:47:31;;;;;;;1.98;0.75;;;23.20;41.40;;;;;;4388564;32;20078;-37
2021/07/08 01:49:58;;;;;;;2.58;0.98;;;23.30;41.50;;;;;;4388471;32;20104;-36
2021/07/08 01:52:24;;;;;;;2.70;0.70;;;23.40;41.50;;;;;;4388550;32;20061;-36
2021/07/08 01:54:51;;;;;;;0.50;0.30;;;23.50;41.60;;;;;;4374523;32;20061;-36
2021/07/08 01:57:18;;;;;;;0.62;0.45;;;23.50;41.60;;;;;;4388459;32;20587;-36
2021/07/08 01:59:44;;;;;;;1.87;1.23;;;23.50;41.60;;;;;;4388603;32;20057;-36
2021/07/08 02:02:11;;;;;;;5.30;0.60;;;23.70;41.70;;;;;;4388673;32;20054;-36
2021/07/08 02:04:37;;;;;;;8.32;1.35;;;23.80;41.70;;;;;;4386679;32;20462;-36
2021/07/08 02:07:04;;;;;;;2.53;1.08;;;23.90;42.10;;;;;;4386840;32;20061;-37
2021/07/08 02:09:30;;;;;;;1.10;0.85;;;24.10;42.10;;;;;;4388067;32;20180;-36
2021/07/08 02:11:58;;;;;;;1.27;0.65;;;24.20;42.10;;;;;;4386898;32;20104;-36
2021/07/08 02:14:27;;;;;;;4.03;0.85;;;24.30;42.70;;;;;;4387803;32;20081;-37
2021/07/08 02:16:55;;;;;;;1.55;0.32;;;24.30;43.00;;;;;;4388291;32;20081;-36
2021/07/08 02:19:21;;;;;;;0.82;0.60;;;24.40;42.90;;;;;;4388226;32;20446;-36
2021/07/08 02:21:48;;;;;;;1.73;0.52;;;24.60;43.00;;;;;;4386896;32;20070;-36
2021/07/08 02:24:15;;;;;;;1.35;0.80;;;24.70;43.10;;;;;;4386601;32;20054;-37
2021/07/08 02:26:41;;;;;;;1.52;0.82;;;24.80;43.00;;;;;;4388391;32;20077;-37
2021/07/08 02:29:09;;;;;;;1.12;0.73;;;24.90;42.70;;;;;;4388101;32;20151;-37
2021/07/08 02:31:37;;;;;;;2.58;0.75;;;25.00;42.60;;;;;;4388020;32;20174;-37
2021/07/08 02:34:04;;;;;;;2.75;0.80;;;25.10;42.80;;;;;;4387885;32;20147;-39
2021/07/08 02:36:31;;;;;;;1.10;0.65;;;25.10;42.80;;;;;;4386900;32;20073;-37
2021/07/08 02:38:57;;;;;;;1.25;0.40;;;25.20;42.90;;;;;;4386459;32;20164;-37
2021/07/08 02:41:24;;;;;;;0.43;0.40;;;25.20;42.70;;;;;;4386531;32;20091;-37
2021/07/08 02:43:51;;;;;;;3.42;1.15;;;25.20;42.50;;;;;;4387918;32;20076;-37
2021/07/08 02:46:17;;;;;;;1.45;0.75;;;25.40;42.50;;;;;;4387642;32;20057;-36
2021/07/08 02:48:44;;;;;;;0.95;0.50;;;25.30;42.20;;;;;;4387976;32;20078;-37
2021/07/08 02:51:10;;;;;;;1.50;0.43;;;25.40;41.90;;;;;;4387905;32;20105;-37
2021/07/08 02:53:36;;;;;;;5.45;1.00;;;25.50;41.60;;;;;;4387713;32;20118;-37
2021/07/08 02:56:04;;;;;;;3.10;0.98;;;25.50;41.00;;;;;;4387636;32;20062;-37
2021/07/08 02:58:30;;;;;;;5.93;1.17;;;25.70;40.70;;;;;;4388035;32;20062;-37
2021/07/08 03:00:57;;;;;;;0.65;0.37;;;25.80;40.60;;;;;;4388010;32;20113;-38
2021/07/08 03:03:23;;;;;;;1.62;0.80;;;25.80;39.70;;;;;;4387966;32;20090;-37
2021/07/08 03:05:50;;;;;;;2.62;0.90;;;25.90;39.80;;;;;;4386398;32;20162;-37
2021/07/08 03:08:16;;;;;;;6.68;1.35;;;26.00;39.60;;;;;;4386345;32;20061;-38
2021/07/08 03:10:43;;;;;;;1.80;0.80;;;26.10;39.30;;;;;;4386359;32;20062;-37
2021/07/08 03:13:09;;;;;;;3.72;0.95;;;26.30;39.00;;;;;;4387370;32;20109;-37
2021/07/08 03:15:36;;;;;;;1.15;0.57;;;26.50;38.40;;;;;;4385878;32;20152;-37
2021/07/08 03:18:02;;;;;;;1.02;0.65;;;26.70;37.90;;;;;;4386399;32;20097;-36
2021/07/08 03:20:32;;;;;;;0.95;0.70;;;26.90;37.20;;;;;;4387803;32;20517;-36
2021/07/08 03:22:59;;;;;;;1.15;0.77;;;26.90;37.30;;;;;;4387403;32;20557;-37
2021/07/08 03:25:25;;;;;;;5.62;1.42;;;27.00;37.10;;;;;;4386288;32;20567;-39
2021/07/08 03:27:54;;;;;;;3.75;1.25;;;27.00;37.10;;;;;;4387576;32;20069;-36
2021/07/08 03:30:22;;;;;;;1.87;0.43;;;27.10;37.20;;;;;;4387846;32;20096;-36
2021/07/08 03:32:52;;;;;;;0.80;0.50;;;27.20;36.90;;;;;;4386361;32;20158;-37
2021/07/08 03:35:18;;;;;;;7.07;0.60;;;27.30;36.80;;;;;;4387864;32;20177;-36
2021/07/08 03:37:45;;;;;;;3.25;1.15;;;27.40;36.50;;;;;;4386171;32;20076;-36
2021/07/08 03:40:13;;;;;;;1.08;0.40;;;27.50;36.30;;;;;;4389980;32;20661;-38
2021/07/08 03:42:41;;;;;;;3.50;0.50;;;27.50;36.30;;;;;;4390557;32;20614;-38
2021/07/08 03:45:09;;;;;;;2.70;0.90;;;27.40;36.40;;;;;;4389042;32;20181;-38
2021/07/08 03:47:35;;;;;;;1.45;0.98;;;27.40;36.40;;;;;;4388900;32;20068;-37
2021/07/08 03:50:06;;;;;;;1.33;0.40;;;27.50;36.30;;;;;;4390051;32;20086;-38
2021/07/08 03:52:33;;;;;;;4.22;1.30;;;27.60;36.10;;;;;;4389047;32;20069;-37
2021/07/08 03:55:02;;;;;;;4.28;1.05;;;27.70;36.10;;;;;;4390512;32;20057;-37
2021/07/08 03:57:28;;;;;;;1.17;0.70;;;27.80;35.80;;;;;;4388870;32;20540;-37
2021/07/08 03:59:55;;;;;;;3.75;0.80;;;27.90;35.70;;;;;;4388765;32;20065;-41
2021/07/08 04:02:21;;;;;;;1.40;1.00;;;28.00;35.60;;;;;;4389913;32;20469;-36
2021/07/08 04:04:48;;;;;;;2.47;0.80;;;28.00;35.40;;;;;;4390320;32;20062;-37
2021/07/08 04:07:14;;;;;;;0.65;0.37;;;28.10;35.20;;;;;;4388726;32;20153;-36
2021/07/08 04:09:40;;;;;;;1.75;0.70;;;28.20;35.10;;;;;;4389932;32;20069;-37
2021/07/08 04:12:07;;;;;;;2.58;0.70;;;28.30;35.10;;;;;;4390181;32;20591;-37
2021/07/08 04:14:34;;;;;;;2.62;1.20;;;28.30;35.10;;;;;;4388377;32;20478;-37
2021/07/08 04:17:00;;;;;;;4.40;1.12;;;28.50;34.90;;;;;;4389854;32;20089;-36
2021/07/08 04:19:27;;;;;;;1.35;0.77;;;28.50;34.60;;;;;;4389946;32;20062;-37
2021/07/08 04:21:53;;;;;;;2.87;0.68;;;28.50;34.70;;;;;;4389816;32;20058;-36
2021/07/08 04:24:20;;;;;;;3.17;0.88;;;28.60;34.40;;;;;;4390288;32;20073;-38
2021/07/08 04:26:46;;;;;;;1.92;0.93;;;28.60;34.40;;;;;;4388348;32;20084;-38
2021/07/08 04:29:13;;;;;;;2.50;1.00;;;28.60;34.50;;;;;;4389365;32;20073;-37
2021/07/08 04:31:39;;;;;;;2.40;1.17;;;28.80;34.50;;;;;;4389815;32;20057;-44
2021/07/08 04:34:06;;;;;;;2.90;1.20;;;28.90;34.50;;;;;;4389863;32;20062;-37
2021/07/08 04:36:32;;;;;;;2.17;1.25;;;29.00;34.30;;;;;;4388267;32;20101;-38
2021/07/08 04:38:59;;;;;;;5.93;1.08;;;29.00;34.20;;;;;;4388136;32;20068;-38
2021/07/08 04:41:25;;;;;;;11.12;2.40;;;29.10;34.40;;;;;;4389750;32;20454;-38
2021/07/08 04:43:52;;;;;;;3.42;1.60;;;29.20;33.90;;;;;;4389944;32;20066;-37
2021/07/08 04:46:18;;;;;;;5.70;1.30;;;29.30;34.30;;;;;;4387754;32;20091;-38
2021/07/08 04:48:45;;;;;;;3.47;1.73;;;29.40;33.60;;;;;;4389175;32;20620;-38
2021/07/08 04:51:11;;;;;;;3.33;1.42;;;29.50;33.80;;;;;;4388931;32;20057;-39
2021/07/08 04:53:38;;;;;;;4.30;1.73;;;29.40;32.80;;;;;;4375410;32;20089;-37
2021/07/08 04:56:05;;;;;;;3.83;1.70;;;29.40;33.20;;;;;;4389333;32;20528;-38
2021/07/08 04:58:31;;;;;;;3.28;0.95;;;29.30;33.40;;;;;;4389567;32;20077;-37
2021/07/08 05:00:58;;;;;;;1.45;0.60;;;29.40;33.80;;;;;;4388973;32;20093;-38
2021/07/08 05:03:24;;;;;;;2.05;0.77;;;29.40;34.00;;;;;;4387770;32;20522;-38
2021/07/08 05:05:51;;;;;;;1.58;1.10;;;29.50;33.70;;;;;;4389325;32;20096;-39
2021/07/08 05:08:17;;;;;;;1.90;1.02;;;29.70;33.60;;;;;;4389353;32;20129;-38
2021/07/08 05:10:44;;;;;;;1.65;0.80;;;29.80;33.50;;;;;;4387371;32;20526;-38
2021/07/08 05:13:10;;;;;;;1.77;0.90;;;29.80;33.20;;;;;;4388711;32;20260;-37
2021/07/08 05:15:37;;;;;;;0.93;0.62;;;30.00;33.20;;;;;;4389545;32;20540;-37
2021/07/08 05:18:04;;;;;;;3.35;1.50;;;30.00;33.00;;;;;;4388727;32;20132;-37
2021/07/08 05:20:31;;;;;;;1.85;1.02;;;30.20;32.90;;;;;;4387559;32;20165;-38
2021/07/08 05:23:04;;;;;;;4.22;0.82;;;30.30;32.70;;;;;;4375125;32;20188;-37
2021/07/08 05:25:30;;;;;;;3.17;1.75;;;30.50;32.40;;;;;;4388772;32;20063;-37
2021/07/08 05:27:57;;;;;;;2.05;1.15;;;30.70;32.00;;;;;;4388808;32;20077;-36
2021/07/08 05:30:23;;;;;;;8.27;0.70;;;30.80;31.90;;;;;;4389405;32;20085;-37
2021/07/08 05:32:50;;;;;;;1.70;1.10;;;31.00;32.20;;;;;;4388662;32;20066;-37
2021/07/08 05:35:16;;;;;;;4.05;1.50;;;31.00;31.70;;;;;;4387214;32;20709;-37
2021/07/08 05:37:43;;;;;;;1.77;0.70;;;31.00;31.90;;;;;;4388538;32;20103;-37
2021/07/08 05:40:10;;;;;;;3.33;1.25;;;31.10;31.90;;;;;;4386905;32;20101;-42
2021/07/08 05:42:37;;;;;;;1.83;1.05;;;31.20;31.50;;;;;;4388627;32;20108;-37
2021/07/08 05:45:06;;;;;;;5.93;1.40;;;31.30;31.70;;;;;;4388608;32;20073;-38
2021/07/08 05:47:33;;;;;;;3.37;1.62;;;31.40;30.70;;;;;;4358260;32;20077;-38
2021/07/08 05:49:59;;;;;;;3.12;1.05;;;31.60;31.00;;;;;;4371162;32;20062;-36
2021/07/08 05:52:26;;;;;;;5.43;1.73;;;31.80;30.40;;;;;;4370967;32;20097;-38
2021/07/08 05:54:53;;;;;;;4.12;1.90;;;32.00;29.50;;;;;;4346225;32;20455;-37
2021/07/08 05:57:19;;;;;;;4.25;1.10;;;32.00;29.10;;;;;;4370829;32;20190;-38
2021/07/08 05:59:46;;;;;;;0.93;0.60;;;32.10;29.40;;;;;;4370972;32;20086;-38
2021/07/08 06:02:12;;;;;;;3.65;0.90;;;32.20;29.40;;;;;;4370856;32;20070;-39
2021/07/08 06:04:39;;;;;;;3.12;1.85;;;32.40;29.00;;;;;;4371114;32;20101;-37
2021/07/08 06:07:05;;;;;;;0.85;0.55;;;32.50;28.50;;;;;;4358447;32;20069;-38
2021/07/08 06:09:32;;;;;;;1.55;0.90;;;32.60;28.60;;;;;;4370876;32;20089;-37
2021/07/08 06:11:58;;;;;;;2.25;0.77;;;32.60;28.40;;;;;;4370858;32;20102;-37
2021/07/08 06:14:25;;;;;;;2.60;1.73;;;32.70;28.90;;;;;;4370722;32;20581;-39
2021/07/08 06:16:52;;;;;;;2.85;1.42;;;32.80;28.40;;;;;;4358330;32;20554;-39
2021/07/08 06:19:18;;;;;;;1.37;1.00;;;33.00;28.50;;;;;;4370670;32;20158;-37
2021/07/08 06:21:45;;;;;;;3.72;2.58;;;33.00;28.10;;;;;;4370762;32;20530;-38
2021/07/08 06:24:11;;;;;;;3.78;2.25;;;33.10;27.50;;;;;;4371350;32;20081;-37
2021/07/08 06:26:37;;;;;;;4.30;1.77;;;33.00;27.70;;;;;;4373456;32;20085;-39
2021/07/08 06:29:04;;;;;;;2.25;1.30;;;32.90;28.50;;;;;;4372624;32;20187;-37
2021/07/08 06:31:30;;;;;;;2.62;1.37;;;32.90;28.10;;;;;;4373101;32;20058;-36
2021/07/08 06:33:57;;;;;;;3.95;1.70;;;32.80;28.10;;;;;;4373178;32;20070;-38
2021/07/08 06:36:23;;;;;;;2.83;1.77;;;32.60;27.90;;;;;;4372908;32;20053;-38
2021/07/08 06:38:50;;;;;;;3.20;1.48;;;32.60;28.10;;;;;;4372856;32;20150;-37
2021/07/08 06:41:16;;;;;;;5.45;2.25;;;32.70;28.30;;;;;;4373015;32;20070;-38
2021/07/08 06:43:44;;;;;;;2.15;1.45;;;32.90;28.20;;;;;;4358815;32;20057;-37
2021/07/08 06:46:16;;;;;;;3.75;1.48;;;33.20;28.00;;;;;;4372323;32;20076;-37
2021/07/08 06:48:43;;;;;;;3.70;2.03;;;33.30;27.80;;;;;;4372750;32;20612;-38
2021/07/08 06:51:10;;;;;;;3.45;2.10;;;33.40;27.90;;;;;;4372978;32;20552;-38
2021/07/08 06:53:38;;;;;;;2.05;1.30;;;33.40;28.20;;;;;;4372527;32;20061;-37
2021/07/08 06:56:05;;;;;;;6.22;2.05;;;33.40;28.20;;;;;;4372547;32;20085;-36
2021/07/08 06:58:31;;;;;;;4.18;1.35;;;33.40;27.70;;;;;;4362707;32;20082;-37
2021/07/08 07:00:58;;;;;;;1.75;0.93;;;33.50;27.80;;;;;;4358028;32;20062;-37
2021/07/08 07:03:26;;;;;;;2.20;1.23;;;33.60;27.90;;;;;;4357805;32;20161;-38
2021/07/08 07:05:52;;;;;;;2.05;0.93;;;33.70;28.00;;;;;;4357893;32;20105;-37
2021/07/08 07:08:19;;;;;;;2.62;1.55;;;33.90;28.20;;;;;;4357893;32;20538;-38
2021/07/08 07:10:45;;;;;;;2.87;2.12;;;34.10;28.20;;;;;;4358030;32;20467;-39
2021/07/08 07:13:12;;;;;;;1.95;1.30;;;34.10;27.90;;;;;;4366223;32;20077;-38
2021/07/08 07:15:42;;;;;;;2.22;1.15;;;34.30;27.80;;;;;;4377419;32;20085;-38
2021/07/08 07:18:08;;;;;;;3.87;1.80;;;34.20;27.60;;;;;;4376880;32;20070;-40
2021/07/08 07:20:35;;;;;;;1.50;0.75;;;34.30;27.70;;;;;;4390736;32;20120;-37
2021/07/08 07:23:01;;;;;;;3.85;1.65;;;34.20;27.90;;;;;;4391177;32;20066;-39
2021/07/08 07:25:31;;;;;;;2.50;1.10;;;34.20;27.80;;;;;;4390774;32;20537;-37
2021/07/08 07:27:58;;;;;;;3.47;2.75;;;34.20;27.60;;;;;;4376578;32;20553;-38
2021/07/08 07:30:26;;;;;;;2.62;2.28;;;34.20;27.60;;;;;;4390277;32;20497;-38
2021/07/08 07:32:54;;;;;;;3.17;1.23;;;34.10;27.70;;;;;;4376666;32;20070;-38
2021/07/08 07:35:20;;;;;;;5.43;2.42;;;34.10;28.00;;;;;;4390288;32;20066;-37
2021/07/08 07:37:49;;;;;;;3.45;1.85;;;34.20;27.90;;;;;;4390621;32;20065;-37
2021/07/08 07:40:16;;;;;;;4.37;2.10;;;34.00;27.80;;;;;;4376861;32;20506;-37
2021/07/08 07:42:43;;;;;;;2.95;1.33;;;34.00;27.90;;;;;;4390034;32;20077;-37
2021/07/08 07:45:10;;;;;;;5.37;2.10;;;34.00;28.10;;;;;;4376301;32;20126;-38
2021/07/08 07:47:36;;;;;;;5.05;2.37;;;34.00;27.90;;;;;;4389786;32;20062;-36
2021/07/08 07:50:04;;;;;;;5.80;2.35;;;34.10;28.00;;;;;;4389859;32;20061;-38
2021/07/08 07:52:31;;;;;;;5.18;2.67;;;34.20;27.90;;;;;;4390497;32;20062;-37
2021/07/08 07:54:57;;;;;;;10.68;2.58;;;34.10;27.80;;;;;;4389807;32;20161;-38
2021/07/08 07:57:24;;;;;;;4.65;1.60;;;34.00;27.90;;;;;;4379074;32;20189;-37
2021/07/08 07:59:50;;;;;;;4.03;2.28;;;34.20;28.10;;;;;;4372178;32;20145;-37
2021/07/08 08:02:17;;;;;;;5.10;1.75;;;34.20;28.10;;;;;;4372470;32;20117;-45
2021/07/08 08:05:08;;;;;;;3.62;1.70;;;34.30;28.20;;;;;;4359588;32;20072;-38
2021/07/08 08:10:20;;;;;;;2.45;0.80;;;34.30;28.20;;;;;;4372288;32;20070;-39
2021/07/08 08:12:48;;;;;;;5.43;2.33;;;34.50;28.10;;;;;;4360071;32;20169;-37
2021/07/08 08:15:15;;;;;;;4.03;1.92;;;34.60;27.80;;;;;;4360058;32;20073;-37
2021/07/08 08:17:42;;;;;;;5.07;2.67;;;34.60;27.60;;;;;;4359975;32;20162;-37
2021/07/08 08:20:09;;;;;;;10.18;2.65;;;34.60;27.60;;;;;;4359455;32;20485;-38
2021/07/08 08:22:38;;;;;;;2.65;1.90;;;34.50;27.60;;;;;;4372312;32;20062;-37
2021/07/08 08:25:09;;;;;;;4.30;1.98;;;34.40;28.40;;;;;;4372101;32;20082;-38
2021/07/08 08:27:37;;;;;;;4.50;1.27;;;34.30;28.10;;;;;;4359776;32;20074;-38
2021/07/08 08:30:07;;;;;;;5.37;2.67;;;34.30;28.10;;;;;;4372414;32;20066;-38
2021/07/08 08:32:35;;;;;;;3.55;2.53;;;34.40;28.10;;;;;;4360116;32;20073;-38
2021/07/08 08:35:01;;;;;;;3.72;1.67;;;34.30;28.30;;;;;;4371870;32;20086;-37
2021/07/08 08:37:28;;;;;;;3.83;2.12;;;34.20;28.10;;;;;;4390438;32;20109;-38
2021/07/08 08:39:54;;;;;;;4.50;2.10;;;34.10;27.60;;;;;;4404418;32;20061;-38
2021/07/08 08:42:20;;;;;;;4.10;2.53;;;34.10;27.90;;;;;;4404999;32;20136;-37
2021/07/08 08:44:47;;;;;;;11.68;3.20;;;34.10;27.90;;;;;;4390544;32;20500;-38
2021/07/08 08:47:13;;;;;;;10.02;3.40;;;34.00;28.00;;;;;;4390359;32;20071;-37
2021/07/08 08:49:41;;;;;;;5.32;2.35;;;34.00;28.00;;;;;;4404592;32;20086;-37
2021/07/08 08:52:09;;;;;;;7.07;2.42;;;33.90;28.00;;;;;;4405025;32;20072;-39
2021/07/08 08:54:36;;;;;;;9.05;2.40;;;33.90;28.00;;;;;;4404690;32;20069;-37
2021/07/08 08:57:03;;;;;;;7.78;2.40;;;33.70;27.90;;;;;;4403781;32;20113;-37
2021/07/08 08:59:30;;;;;;;9.05;3.83;;;33.80;28.10;;;;;;4387720;32;20485;-37
2021/07/08 09:02:17;;;;;;;5.20;2.65;;;33.70;27.80;;;;;;4389527;32;20135;-36
2021/07/08 09:04:47;;;;;;;6.82;3.15;;;33.60;27.90;;;;;;4389401;32;20077;-36
2021/07/08 09:07:30;;;;;;;3.33;3.00;;;33.60;28.10;;;;;;4389295;32;20050;-37
2021/07/08 09:09:58;;;;;;;5.12;2.67;;;33.70;27.90;;;;;;4388988;32;20102;-37
2021/07/08 09:12:25;;;;;;;4.25;3.83;;;33.80;27.90;;;;;;4389244;32;20065;-37
2021/07/08 09:15:20;;;;;;;5.37;2.75;;;34.00;27.70;;;;;;4388589;32;20089;-37
2021/07/08 09:17:46;;;;;;;4.35;2.75;;;34.00;27.70;;;;;;4384457;32;20607;-37
2021/07/08 09:20:15;;;;;;;4.97;3.55;;;33.90;27.70;;;;;;4389295;32;20121;-36
2021/07/08 09:22:45;;;;;;;3.50;2.72;;;33.70;27.60;;;;;;4387253;32;20099;-36
2021/07/08 09:25:25;;;;;;;6.68;2.95;;;33.70;27.50;;;;;;4356193;32;20173;-36
2021/07/08 09:28:12;;;;;;;3.05;1.87;;;33.60;27.60;;;;;;4356456;32;20140;-36
2021/07/08 09:30:39;;;;;;;2.78;1.90;;;33.50;27.70;;;;;;4346443;32;20238;-35
2021/07/08 09:33:35;;;;;;;5.62;4.03;;;33.50;28.10;;;;;;4356671;32;20525;-37
2021/07/08 09:36:15;;;;;;;2.22;1.55;;;33.60;28.00;;;;;;4355671;32;20097;-37
2021/07/08 09:38:44;;;;;;;4.97;2.58;;;33.90;28.00;;;;;;4356489;32;20085;-37
2021/07/08 09:41:18;;;;;;;1.92;1.40;;;34.00;27.70;;;;;;4356515;32;20062;-37
2021/07/08 09:43:45;;;;;;;3.67;2.17;;;34.20;27.60;;;;;;4343653;32;20152;-37
2021/07/08 09:46:13;;;;;;;6.53;2.60;;;34.40;27.50;;;;;;4356359;32;20074;-37
2021/07/08 09:49:00;;;;;;;6.55;3.22;;;34.60;27.00;;;;;;4356338;32;20156;-37
2021/07/08 09:51:30;;;;;;;2.08;1.17;;;34.70;27.00;;;;;;4356089;32;20069;-37
2021/07/08 09:54:05;;;;;;;4.22;2.03;;;34.70;26.90;;;;;;4356122;32;20070;-38
2021/07/08 09:59:15;;;;;;;2.37;1.50;;;34.60;26.00;;;;;;4403085;32;20104;-38
2021/07/08 10:01:43;;;;;;;3.35;1.05;;;34.60;26.20;;;;;;4403915;32;20066;-37
2021/07/08 10:04:10;;;;;;;6.47;3.47;;;34.80;26.30;;;;;;4389435;32;20065;-37
2021/07/08 10:07:17;;;;;;;4.75;2.90;;;34.80;25.40;;;;;;3807214;37;20237;-37
2021/07/08 10:09:43;;;;;;;10.95;1.95;;;34.90;25.80;;;;;;4386179;32;20146;-36
2021/07/08 10:12:09;;;;;;;9.10;2.30;;;35.10;25.70;;;;;;4360194;32;20073;-37
2021/07/08 10:14:36;;;;;;;5.68;2.35;;;35.10;25.00;;;;;;4359509;32;20494;-37
2021/07/08 10:17:03;;;;;;;4.85;2.67;;;35.00;25.20;;;;;;4340560;32;20111;-37
2021/07/08 10:19:29;;;;;;;7.78;3.12;;;35.00;25.90;;;;;;4341152;32;20067;-36
2021/07/08 10:21:56;;;;;;;5.68;1.48;;;34.90;25.80;;;;;;4328768;32;20066;-36
2021/07/08 10:24:22;;;;;;;6.22;3.28;;;34.90;25.80;;;;;;4323178;33;20224;-36
2021/07/08 10:26:49;;;;;;;1.83;1.08;;;34.90;25.80;;;;;;4323658;33;20062;-37
2021/07/08 10:29:16;;;;;;;7.00;2.25;;;35.10;26.00;;;;;;4311697;33;20122;-38
2021/07/08 10:31:47;;;;;;;8.35;3.20;;;35.20;25.40;;;;;;4311927;33;20072;-37
2021/07/08 10:34:20;;;;;;;3.80;2.78;;;35.10;25.50;;;;;;4312287;33;20098;-37
2021/07/08 10:36:52;;;;;;;3.87;2.00;;;35.00;25.90;;;;;;4323693;33;20063;-37
2021/07/08 10:39:23;;;;;;;6.62;2.33;;;35.00;25.70;;;;;;4323915;33;20098;-37
2021/07/08 10:41:52;;;;;;;3.05;1.98;;;35.10;25.50;;;;;;4323697;33;20503;-36
2021/07/08 10:44:41;;;;;;;5.97;1.50;;;35.10;25.20;;;;;;4323751;33;20098;-38
2021/07/08 10:47:37;;;;;;;1.85;1.40;;;35.20;24.40;;;;;;4311525;33;20067;-38
2021/07/08 10:50:08;;;;;;;5.07;1.10;;;35.10;24.70;;;;;;4323581;33;20519;-38
2021/07/08 10:52:47;;;;;;;5.18;2.30;;;35.10;25.40;;;;;;4309020;33;20617;-38
2021/07/08 10:55:38;;;;;;;3.72;3.25;;;35.10;24.60;;;;;;4320359;33;20072;-37
2021/07/08 10:58:05;;;;;;;7.72;1.52;;;35.00;24.50;;;;;;4325612;33;21068;-37
2021/07/08 11:00:50;;;;;;;3.80;3.12;;;34.90;25.30;;;;;;4338051;33;20093;-38
2021/07/08 11:03:39;;;;;;;1.05;0.85;;;35.10;25.60;;;;;;4370150;32;20570;-36
2021/07/08 11:06:34;;;;;;;3.37;1.73;;;35.10;25.60;;;;;;4369994;32;20169;-37
2021/07/08 11:09:18;;;;;;;7.30;1.90;;;35.20;25.50;;;;;;4358692;32;20074;-37
2021/07/08 11:11:50;;;;;;;4.37;1.42;;;35.30;25.70;;;;;;4369818;32;20153;-36
2021/07/08 11:14:19;;;;;;;6.25;2.15;;;35.40;25.90;;;;;;4370382;32;20064;-37
2021/07/08 11:17:20;;;;;;;3.75;0.70;;;35.50;25.10;;;;;;4368239;32;20145;-37
2021/07/08 11:19:48;;;;;;;6.75;2.70;;;35.60;24.50;;;;;;4359245;32;20066;-37
2021/07/08 11:22:32;;;;;;;5.55;2.60;;;35.80;24.60;;;;;;4346126;32;20154;-37
2021/07/08 11:24:59;;;;;;;3.14;0.92;;;35.70;24.00;;;;;;4359978;32;20595;-38
2021/07/08 11:27:30;;;;;;;2.33;1.40;;;35.80;24.60;;;;;;4359858;32;20638;-37
2021/07/08 11:30:17;;;;;;;2.37;1.33;;;36.00;24.50;;;;;;4359419;32;20163;-37
2021/07/08 11:32:54;;;;;;;2.05;1.40;;;36.10;24.40;;;;;;4356764;32;20519;-37
2021/07/08 11:35:34;;;;;;;4.62;2.00;;;36.10;24.00;;;;;;4346790;32;20062;-37
2021/07/08 11:38:15;;;;;;;3.03;1.52;;;36.00;24.60;;;;;;4359350;32;20094;-37
2021/07/08 11:40:44;;;;;;;2.97;1.65;;;36.10;25.00;;;;;;4346561;32;20105;-37
2021/07/08 11:43:36;;;;;;;6.68;1.50;;;36.20;25.30;;;;;;4359914;32;20562;-37
2021/07/08 11:46:13;;;;;;;3.83;2.30;;;36.20;25.40;;;;;;4347652;32;20132;-38
2021/07/08 11:48:41;;;;;;;6.60;2.97;;;36.10;24.60;;;;;;4359662;32;20071;-37
2021/07/08 11:51:15;;;;;;;2.55;0.80;;;36.00;24.80;;;;;;4359208;32;20190;-37
2021/07/08 11:53:42;;;;;;;;;;;35.90;25.00;;;;;;4359505;32;20067;-38
2021/07/08 11:56:09;;;;;;;2.22;1.60;;;36.00;24.30;;;;;;4359039;32;19992;-36
2021/07/08 11:58:35;;;;;;;2.42;1.75;;;36.00;24.70;;;;;;4348815;32;20129;-37
2021/07/08 12:01:07;;;;;;;4.07;1.58;;;35.90;25.10;;;;;;4344749;33;20071;-37
2021/07/08 12:03:55;;;;;;;4.20;1.70;;;35.90;25.20;;;;;;4344586;33;20083;-37
2021/07/08 12:06:24;;;;;;;3.78;1.33;;;35.80;25.10;;;;;;4306711;33;20165;-37
2021/07/08 12:08:57;;;;;;;2.62;1.30;;;35.90;25.10;;;;;;4312651;33;20147;-36
2021/07/08 12:11:40;;;;;;;5.00;1.80;;;35.90;24.80;;;;;;4300218;33;20067;-36
2021/07/08 12:14:16;;;;;;;12.98;2.00;;;36.00;25.20;;;;;;4312251;33;20582;-37
2021/07/08 12:16:53;;;;;;;1.62;0.82;;;36.00;25.20;;;;;;4312552;33;20150;-37
2021/07/08 12:19:26;;;;;;;10.18;2.28;;;36.10;25.10;;;;;;4300974;33;20086;-37
2021/07/08 12:21:57;;;;;;;3.62;1.33;;;36.30;24.90;;;;;;4312112;33;20068;-37
2021/07/08 12:24:32;;;;;;;3.10;1.12;;;36.40;25.40;;;;;;4312402;33;20063;-37
2021/07/08 12:27:06;;;;;;;1.70;1.10;;;36.30;24.60;;;;;;4312147;33;20231;-37
2021/07/08 12:29:39;;;;;;;;;;;36.40;25.00;;;;;;4311951;33;20236;-37
2021/07/08 12:32:17;;;;;;;4.28;1.50;;;36.40;25.00;;;;;;4312157;33;20021;-37
2021/07/08 12:34:53;;;;;;;3.25;1.83;;;36.20;24.60;;;;;;4312097;33;20098;-36
2021/07/08 12:37:32;;;;;;;2.45;1.83;;;36.00;24.70;;;;;;4327888;33;20079;-36
2021/07/08 12:40:14;;;;;;;3.15;2.20;;;35.90;24.60;;;;;;4300823;33;20067;-35
2021/07/08 12:42:46;;;;;;;2.33;1.70;;;35.80;24.60;;;;;;4312480;33;20083;-37
2021/07/08 12:45:18;;;;;;;3.72;2.25;;;35.70;24.80;;;;;;4312226;33;20075;-38
2021/07/08 12:47:48;;;;;;;4.72;1.45;;;35.70;24.80;;;;;;4299982;33;20075;-37
2021/07/08 12:50:15;;;;;;;2.55;1.77;;;35.50;24.90;;;;;;4312183;33;20222;-37
2021/07/08 12:52:42;;;;;;;2.22;1.48;;;35.50;25.10;;;;;;4311993;33;20576;-39
2021/07/08 12:55:41;;;;;;;3.05;1.85;;;35.70;25.10;;;;;;4299623;33;20497;-39
2021/07/08 12:58:33;;;;;;;3.33;1.90;;;35.90;25.20;;;;;;4318963;33;20200;-37
2021/07/08 13:01:05;;;;;;;2.70;1.80;;;35.80;25.00;;;;;;4314612;33;20094;-37
2021/07/08 13:03:39;;;;;;;2.85;1.70;;;35.80;25.10;;;;;;4326221;33;20098;-37
2021/07/08 13:06:11;;;;;;;3.72;2.17;;;35.80;24.90;;;;;;4326510;33;20072;-37